Time;durP1;ratioP1;P1;durP2;ratioP2;P2;SDS_P1;SDS_P2;PMS_P1;PMS_P2;Temp;Humidity;BMP_temperature;BMP_pressure;BME280_temperature;BME280_humidity;BME280_pressure;Samples;Min_cycle;Max_cycle;Signal;HPM_P1;HPM_P2
2021/10/25 00:01:09;;;;;;;11.00;8.53;;;5.40;99.90;;;;;;5051771;28;20261;-65
2021/10/25 00:03:36;;;;;;;12.13;8.50;;;5.50;99.90;;;;;;5052223;28;20304;-65
2021/10/25 00:06:04;;;;;;;12.20;9.17;;;5.50;99.90;;;;;;5052574;28;20217;-65
2021/10/25 00:08:31;;;;;;;11.20;8.37;;;5.50;99.90;;;;;;5051801;28;20623;-66
2021/10/25 00:10:57;;;;;;;12.70;9.20;;;5.50;99.90;;;;;;5051918;28;20232;-66
2021/10/25 00:13:24;;;;;;;10.20;8.83;;;5.50;99.90;;;;;;5052449;28;20216;-66
2021/10/25 00:15:52;;;;;;;14.70;9.17;;;5.50;99.90;;;;;;5052578;28;20240;-66
2021/10/25 00:18:19;;;;;;;12.00;9.17;;;5.50;99.90;;;;;;5052371;28;20239;-66
2021/10/25 00:20:45;;;;;;;11.13;8.23;;;5.40;99.90;;;;;;5052591;28;20217;-66
2021/10/25 00:23:12;;;;;;;13.07;9.07;;;5.40;99.90;;;;;;5052960;28;20201;-67
2021/10/25 00:25:40;;;;;;;12.40;8.50;;;5.30;99.90;;;;;;5053164;28;20209;-64
2021/10/25 00:28:07;;;;;;;11.83;8.40;;;5.30;99.90;;;;;;5053060;28;20202;-65
2021/10/25 00:30:33;;;;;;;11.77;8.77;;;5.30;99.90;;;;;;5052040;28;20217;-64
2021/10/25 00:33:01;;;;;;;10.80;8.63;;;5.20;99.90;;;;;;5057800;22;20304;-60
2021/10/25 00:35:28;;;;;;;10.70;8.40;;;5.20;99.90;;;;;;5030775;28;20202;-62
2021/10/25 00:37:55;;;;;;;10.17;9.10;;;5.10;99.90;;;;;;5030760;28;20217;-62
2021/10/25 00:40:23;;;;;;;10.20;8.47;;;5.00;99.90;;;;;;5030939;28;20237;-62
2021/10/25 00:42:49;;;;;;;11.73;8.97;;;5.00;99.90;;;;;;5030688;28;20606;-63
2021/10/25 00:45:16;;;;;;;11.83;9.17;;;5.00;99.90;;;;;;5030567;28;20213;-60
2021/10/25 00:47:43;;;;;;;10.87;8.63;;;4.90;99.90;;;;;;5030683;28;20258;-60
2021/10/25 00:50:11;;;;;;;10.87;9.03;;;4.90;99.90;;;;;;5030794;28;20212;-60
2021/10/25 00:52:39;;;;;;;11.10;8.67;;;4.90;99.90;;;;;;5030721;28;20225;-61
2021/10/25 00:55:08;;;;;;;12.00;9.57;;;4.90;99.90;;;;;;5030568;28;20206;-60
2021/10/25 00:57:35;;;;;;;10.87;9.17;;;4.90;99.90;;;;;;5030719;28;20215;-60
2021/10/25 01:00:04;;;;;;;12.43;9.03;;;4.90;99.90;;;;;;5030582;28;20202;-60
2021/10/25 01:02:31;;;;;;;14.37;9.60;;;5.00;99.90;;;;;;5030334;28;20238;-60
2021/10/25 01:04:58;;;;;;;12.03;9.10;;;5.10;99.90;;;;;;5030255;28;20217;-60
2021/10/25 01:07:27;;;;;;;11.70;9.40;;;5.10;99.90;;;;;;5030450;28;20709;-60
2021/10/25 01:09:55;;;;;;;12.00;9.10;;;5.10;99.90;;;;;;5030378;28;20684;-61
2021/10/25 01:12:23;;;;;;;12.93;9.30;;;5.10;99.90;;;;;;5030644;28;20727;-60
2021/10/25 01:14:49;;;;;;;13.03;9.13;;;5.10;99.90;;;;;;5030436;28;20206;-60
2021/10/25 01:17:16;;;;;;;11.90;8.93;;;5.00;99.90;;;;;;5030485;28;20206;-60
2021/10/25 01:19:43;;;;;;;11.80;9.43;;;5.00;99.90;;;;;;5030151;28;20214;-60
2021/10/25 01:22:11;;;;;;;13.93;9.57;;;5.00;99.90;;;;;;5030347;28;20234;-60
2021/10/25 01:24:38;;;;;;;14.77;9.57;;;5.00;99.90;;;;;;5031175;28;20210;-60
2021/10/25 01:27:05;;;;;;;14.43;10.30;;;5.00;99.90;;;;;;5034224;28;20210;-62
2021/10/25 01:29:31;;;;;;;11.77;10.13;;;5.00;99.90;;;;;;5034003;28;20620;-60
2021/10/25 01:31:58;;;;;;;13.03;10.40;;;5.00;99.90;;;;;;5033910;28;20230;-60
2021/10/25 01:34:25;;;;;;;14.33;10.10;;;5.10;99.90;;;;;;5034406;28;20206;-60
2021/10/25 01:36:51;;;;;;;14.80;9.93;;;5.10;99.90;;;;;;5034233;28;20206;-60
2021/10/25 01:39:20;;;;;;;13.37;9.93;;;5.10;99.90;;;;;;5033780;28;20206;-64
2021/10/25 01:41:47;;;;;;;11.40;9.30;;;5.20;99.90;;;;;;5033838;28;20235;-60
2021/10/25 01:44:14;;;;;;;14.17;10.37;;;5.20;99.90;;;;;;5033318;28;20211;-61
2021/10/25 01:46:42;;;;;;;13.00;9.90;;;5.20;99.90;;;;;;5033272;28;20213;-60
2021/10/25 01:49:09;;;;;;;12.13;10.23;;;5.30;99.90;;;;;;5033645;28;20684;-60
2021/10/25 01:51:36;;;;;;;12.43;9.90;;;5.40;99.90;;;;;;5033774;28;20257;-60
2021/10/25 01:54:03;;;;;;;12.27;10.07;;;5.40;99.90;;;;;;5033814;28;20209;-59
2021/10/25 01:56:31;;;;;;;16.40;12.87;;;5.40;99.90;;;;;;5033627;28;20202;-61
2021/10/25 01:58:58;;;;;;;10.90;9.43;;;5.40;99.90;;;;;;5033402;28;20256;-60
2021/10/25 02:01:25;;;;;;;14.63;10.87;;;5.50;99.90;;;;;;5033292;28;20249;-60
2021/10/25 02:03:52;;;;;;;14.60;10.57;;;5.50;99.90;;;;;;5033586;28;20210;-60
2021/10/25 02:06:20;;;;;;;22.17;17.80;;;5.50;99.90;;;;;;5033393;28;20305;-61
2021/10/25 02:08:47;;;;;;;30.57;22.63;;;5.40;99.90;;;;;;5033273;28;20533;-60
2021/10/25 02:11:14;;;;;;;24.23;18.70;;;5.40;99.90;;;;;;5033092;28;20306;-61
2021/10/25 02:13:43;;;;;;;48.63;37.77;;;5.40;99.90;;;;;;5032844;28;20218;-60
2021/10/25 02:16:11;;;;;;;19.97;14.20;;;5.30;99.90;;;;;;5033237;28;20632;-61
2021/10/25 02:18:38;;;;;;;12.10;10.13;;;5.30;99.90;;;;;;5033085;28;20206;-60
2021/10/25 02:21:04;;;;;;;11.77;9.67;;;5.30;99.90;;;;;;5032914;28;20210;-61
2021/10/25 02:23:31;;;;;;;12.27;10.23;;;5.30;99.90;;;;;;5032765;28;20202;-60
2021/10/25 02:25:58;;;;;;;15.63;11.03;;;5.30;99.90;;;;;;5033163;28;20214;-60
2021/10/25 02:28:25;;;;;;;14.67;10.30;;;5.30;99.90;;;;;;5033069;28;20681;-60
2021/10/25 02:30:53;;;;;;;13.47;11.00;;;5.40;99.90;;;;;;5032927;28;20206;-60
2021/10/25 02:33:21;;;;;;;13.03;11.10;;;5.30;99.90;;;;;;5032745;28;20230;-60
2021/10/25 02:35:48;;;;;;;12.03;10.67;;;5.40;99.90;;;;;;5032798;28;20202;-60
2021/10/25 02:38:15;;;;;;;12.97;10.97;;;5.40;99.90;;;;;;5032587;28;20256;-60
2021/10/25 02:40:42;;;;;;;14.13;10.70;;;5.40;99.90;;;;;;5032734;28;20213;-60
2021/10/25 02:43:09;;;;;;;12.93;11.07;;;5.50;99.90;;;;;;5032569;28;20225;-60
2021/10/25 02:45:36;;;;;;;12.23;10.53;;;5.50;99.90;;;;;;5032433;28;20210;-60
2021/10/25 02:48:06;;;;;;;14.03;10.37;;;5.50;99.90;;;;;;5032482;28;20206;-60
2021/10/25 02:50:33;;;;;;;13.30;10.50;;;5.60;99.90;;;;;;5032442;28;20206;-61
2021/10/25 02:53:00;;;;;;;13.60;11.00;;;5.60;99.90;;;;;;5032407;28;20223;-61
2021/10/25 02:55:27;;;;;;;13.50;10.57;;;5.60;99.90;;;;;;5032161;28;20220;-61
2021/10/25 02:57:54;;;;;;;13.70;10.93;;;5.70;99.90;;;;;;5032328;28;20213;-61
2021/10/25 03:00:21;;;;;;;16.27;12.00;;;5.70;99.90;;;;;;5032479;28;20762;-61
2021/10/25 03:02:48;;;;;;;13.53;11.47;;;5.70;99.90;;;;;;5032103;28;20229;-61
2021/10/25 03:05:16;;;;;;;14.37;10.70;;;5.60;99.90;;;;;;5032060;28;20202;-61
2021/10/25 03:07:43;;;;;;;13.47;10.93;;;5.60;99.90;;;;;;5032115;28;20242;-62
2021/10/25 03:10:10;;;;;;;12.93;10.43;;;5.60;99.90;;;;;;5032310;28;20300;-61
2021/10/25 03:12:37;;;;;;;15.30;11.23;;;5.60;99.90;;;;;;5032189;28;20253;-62
2021/10/25 03:15:05;;;;;;;14.27;11.40;;;5.60;99.90;;;;;;5032107;28;20208;-61
2021/10/25 03:17:31;;;;;;;15.50;11.50;;;5.50;99.90;;;;;;5032158;28;20238;-62
2021/10/25 03:19:58;;;;;;;17.23;11.93;;;5.50;99.90;;;;;;5032059;28;20276;-62
2021/10/25 03:22:26;;;;;;;12.07;10.63;;;5.60;99.90;;;;;;5032161;28;20222;-62
2021/10/25 03:24:53;;;;;;;14.87;11.33;;;5.70;99.90;;;;;;5032036;28;20297;-62
2021/10/25 03:27:19;;;;;;;14.43;11.20;;;5.70;99.90;;;;;;5031974;28;20206;-61
2021/10/25 03:29:46;;;;;;;16.50;11.43;;;5.70;99.90;;;;;;5031554;28;20689;-61
2021/10/25 03:32:13;;;;;;;14.77;11.07;;;5.70;99.90;;;;;;5031445;28;20693;-62
2021/10/25 03:34:40;;;;;;;17.53;11.67;;;5.70;99.90;;;;;;5031356;28;20577;-62
2021/10/25 03:37:08;;;;;;;14.60;10.60;;;5.70;99.90;;;;;;5031587;28;20210;-61
2021/10/25 03:39:38;;;;;;;16.33;11.67;;;5.70;99.90;;;;;;5031743;28;20210;-61
2021/10/25 03:42:10;;;;;;;15.90;12.63;;;5.70;99.90;;;;;;5031528;28;20325;-61
2021/10/25 03:44:43;;;;;;;17.73;12.63;;;5.70;99.90;;;;;;5031571;28;20214;-60
2021/10/25 03:47:15;;;;;;;16.00;12.80;;;5.60;99.90;;;;;;5031217;28;20680;-61
2021/10/25 03:49:45;;;;;;;15.50;12.47;;;5.60;99.90;;;;;;5031171;28;20210;-60
2021/10/25 03:52:18;;;;;;;14.20;12.00;;;5.60;99.90;;;;;;5031315;28;20237;-61
2021/10/25 03:54:50;;;;;;;15.33;11.80;;;5.60;99.90;;;;;;5031350;28;20203;-61
2021/10/25 03:57:51;;;;;;;17.07;12.17;;;5.60;99.90;;;;;;5031499;28;20605;-61
2021/10/25 04:03:52;;;;;;;13.70;11.47;;;5.60;99.90;;;;;;4989204;28;20209;-61
2021/10/25 04:28:27;;;;;;;13.77;11.63;;;5.40;99.90;;;;;;5030797;28;20205;-61
2021/10/25 04:30:56;;;;;;;16.77;11.87;;;5.30;99.90;;;;;;5030759;28;20202;-61
2021/10/25 04:33:23;;;;;;;14.87;11.20;;;5.40;99.90;;;;;;5031056;28;20690;-60
2021/10/25 04:35:50;;;;;;;15.37;11.83;;;5.40;99.90;;;;;;5030797;28;20270;-61
2021/10/25 04:38:17;;;;;;;15.20;12.17;;;5.50;99.90;;;;;;5030600;28;20626;-61
2021/10/25 04:40:44;;;;;;;15.60;11.83;;;5.50;99.90;;;;;;5030947;28;20202;-61
2021/10/25 04:43:13;;;;;;;14.13;12.20;;;5.40;99.90;;;;;;5030719;28;20731;-61
2021/10/25 04:45:41;;;;;;;16.40;12.10;;;5.40;99.90;;;;;;5030877;28;20348;-61
2021/10/25 04:48:08;;;;;;;13.97;11.57;;;5.40;99.90;;;;;;5030554;28;20206;-61
2021/10/25 04:50:35;;;;;;;13.40;10.87;;;5.50;99.90;;;;;;5030954;28;20206;-62
2021/10/25 04:53:02;;;;;;;13.07;10.63;;;5.40;99.90;;;;;;5030714;28;20287;-60
2021/10/25 04:55:30;;;;;;;14.03;11.70;;;5.30;99.90;;;;;;5030614;28;20268;-60
2021/10/25 04:57:57;;;;;;;15.33;11.23;;;5.40;99.90;;;;;;5030489;28;20217;-61
2021/10/25 05:00:23;;;;;;;14.67;11.17;;;5.50;99.90;;;;;;5031957;28;20674;-60
2021/10/25 05:02:51;;;;;;;15.80;12.37;;;5.40;99.90;;;;;;5034481;28;20530;-61
2021/10/25 05:05:18;;;;;;;13.13;11.40;;;5.50;99.90;;;;;;5034186;28;20202;-61
2021/10/25 05:07:45;;;;;;;16.70;10.67;;;5.50;99.90;;;;;;5034158;28;20202;-61
2021/10/25 05:10:11;;;;;;;12.33;10.43;;;5.50;99.90;;;;;;5034295;28;20666;-61
2021/10/25 05:12:38;;;;;;;14.00;11.07;;;5.50;99.90;;;;;;5033772;28;20253;-61
2021/10/25 05:15:06;;;;;;;13.00;10.63;;;5.50;99.90;;;;;;5034366;28;20367;-60
2021/10/25 05:17:32;;;;;;;13.83;10.33;;;5.40;99.90;;;;;;5034052;28;20210;-61
2021/10/25 05:20:00;;;;;;;14.60;10.50;;;5.40;99.90;;;;;;5033855;28;20626;-61
2021/10/25 05:22:27;;;;;;;13.50;10.47;;;5.30;99.90;;;;;;5033898;28;20230;-61
2021/10/25 05:24:55;;;;;;;14.53;11.07;;;5.30;99.90;;;;;;5033852;28;20206;-61
2021/10/25 05:27:22;;;;;;;15.20;11.50;;;5.30;99.90;;;;;;5033844;28;20255;-61
2021/10/25 05:29:49;;;;;;;14.20;10.77;;;5.40;99.90;;;;;;5033827;28;20203;-61
2021/10/25 05:32:15;;;;;;;14.47;10.80;;;5.50;99.90;;;;;;5033569;28;20230;-61
2021/10/25 05:34:42;;;;;;;14.20;11.83;;;5.60;99.90;;;;;;5033730;28;20213;-60
2021/10/25 05:37:10;;;;;;;14.43;11.17;;;5.50;99.90;;;;;;5033698;28;20202;-61
2021/10/25 05:39:37;;;;;;;14.13;11.50;;;5.60;99.90;;;;;;5033502;28;20217;-61
2021/10/25 05:42:07;;;;;;;15.40;12.87;;;5.70;99.90;;;;;;5033418;28;20233;-61
2021/10/25 05:44:35;;;;;;;13.77;11.53;;;5.70;99.90;;;;;;5033624;28;20214;-61
2021/10/25 05:47:02;;;;;;;17.53;11.57;;;5.80;99.90;;;;;;5033597;28;20213;-61
2021/10/25 05:49:29;;;;;;;17.53;12.73;;;5.90;99.90;;;;;;5033384;28;20210;-61
2021/10/25 05:51:56;;;;;;;14.83;11.43;;;5.90;99.90;;;;;;5033438;28;20262;-60
2021/10/25 05:54:25;;;;;;;14.43;11.43;;;5.90;99.90;;;;;;5033096;28;20271;-59
2021/10/25 05:56:52;;;;;;;16.30;13.57;;;5.90;99.90;;;;;;5033386;28;20217;-60
2021/10/25 05:59:23;;;;;;;16.40;12.30;;;5.90;99.90;;;;;;5033437;28;20608;-60
2021/10/25 06:01:57;;;;;;;14.40;11.40;;;6.00;99.90;;;;;;5033296;28;20298;-60
2021/10/25 06:04:25;;;;;;;15.53;11.00;;;6.00;99.90;;;;;;5033435;28;20197;-60
2021/10/25 06:06:52;;;;;;;14.40;11.13;;;5.90;99.90;;;;;;5033363;28;20613;-60
2021/10/25 06:09:20;;;;;;;14.50;11.60;;;5.80;99.90;;;;;;5033460;28;20665;-60
2021/10/25 06:11:48;;;;;;;13.97;11.93;;;5.70;99.90;;;;;;5033145;28;20305;-60
2021/10/25 06:14:17;;;;;;;14.60;11.20;;;5.70;99.90;;;;;;5033063;28;20309;-61
2021/10/25 06:16:46;;;;;;;12.13;10.20;;;5.60;99.90;;;;;;5032750;28;20216;-60
2021/10/25 06:19:15;;;;;;;15.17;11.67;;;5.60;99.90;;;;;;5033002;28;20213;-60
2021/10/25 06:21:42;;;;;;;11.90;10.07;;;5.70;99.90;;;;;;5032915;28;20253;-60
2021/10/25 06:24:09;;;;;;;13.50;11.20;;;5.80;99.90;;;;;;5032726;28;20708;-61
2021/10/25 06:26:35;;;;;;;13.77;11.10;;;5.80;99.90;;;;;;5032855;28;20681;-61
2021/10/25 06:29:03;;;;;;;14.87;11.63;;;5.90;99.90;;;;;;5032670;28;20297;-60
2021/10/25 06:31:32;;;;;;;16.90;12.87;;;6.00;99.90;;;;;;5033053;28;20234;-60
2021/10/25 06:34:02;;;;;;;14.60;11.17;;;6.10;99.90;;;;;;5032646;28;20317;-60
2021/10/25 06:36:30;;;;;;;14.57;11.40;;;6.30;99.90;;;;;;5032739;28;20245;-60
2021/10/25 06:39:09;;;;;;;15.30;11.23;;;6.30;99.90;;;;;;5032504;28;20202;-60
2021/10/25 06:41:35;;;;;;;14.97;10.87;;;6.40;99.90;;;;;;5032723;28;20226;-59
2021/10/25 06:44:06;;;;;;;13.70;10.47;;;6.60;99.90;;;;;;5032538;28;20202;-57
2021/10/25 06:46:32;;;;;;;12.43;10.27;;;6.80;99.90;;;;;;5032422;28;20212;-58
2021/10/25 06:49:00;;;;;;;14.43;11.20;;;7.00;99.90;;;;;;5032273;28;20213;-59
2021/10/25 06:51:27;;;;;;;11.80;10.00;;;7.30;99.90;;;;;;5032248;28;20258;-59
2021/10/25 06:53:54;;;;;;;11.33;10.13;;;7.50;99.90;;;;;;5032376;28;20316;-59
2021/10/25 06:56:21;;;;;;;14.97;10.33;;;7.70;99.90;;;;;;5032347;28;20237;-58
2021/10/25 06:58:47;;;;;;;15.17;11.33;;;7.90;99.90;;;;;;5031931;28;20630;-58
2021/10/25 07:01:16;;;;;;;14.63;10.60;;;7.90;99.90;;;;;;5031871;28;20317;-57
2021/10/25 07:03:43;;;;;;;11.20;9.47;;;7.90;99.90;;;;;;5032089;28;20484;-57
2021/10/25 07:06:14;;;;;;;13.03;10.33;;;7.90;99.90;;;;;;5032007;28;20209;-59
2021/10/25 07:08:41;;;;;;;12.60;9.90;;;7.80;99.90;;;;;;5032077;28;20214;-58
2021/10/25 07:11:09;;;;;;;11.60;9.73;;;8.00;99.90;;;;;;5031755;28;20222;-58
2021/10/25 07:13:37;;;;;;;12.03;10.07;;;8.20;99.90;;;;;;5031698;28;20321;-58
2021/10/25 07:16:11;;;;;;;14.03;9.97;;;8.40;99.90;;;;;;5032130;28;20202;-59
2021/10/25 07:18:46;;;;;;;10.53;9.10;;;8.60;99.90;;;;;;5031863;28;20300;-56
2021/10/25 07:21:44;;;;;;;12.50;8.93;;;8.60;99.90;;;;;;5032006;28;20721;-63
2021/10/25 07:27:22;;;;;;;13.47;11.00;;;8.40;99.90;;;;;;5031841;28;20198;-56
2021/10/25 08:00:33;;;;;;;11.97;9.33;;;9.20;99.90;;;;;;5032189;28;20241;-58
2021/10/25 08:05:52;;;;;;;11.37;9.83;;;9.70;99.90;;;;;;5031040;28;20628;-56
2021/10/25 08:08:37;;;;;;;11.93;9.87;;;9.70;99.90;;;;;;5031345;28;20244;-58
2021/10/25 08:11:06;;;;;;;15.87;9.07;;;9.70;99.90;;;;;;5031297;28;20234;-57
2021/10/25 08:13:36;;;;;;;10.17;7.97;;;9.80;99.90;;;;;;5030860;28;20645;-58
2021/10/25 08:16:12;;;;;;;10.03;8.70;;;10.00;99.90;;;;;;5031228;28;20202;-56
2021/10/25 08:18:54;;;;;;;11.53;8.67;;;10.10;99.90;;;;;;5031121;28;20206;-56
2021/10/25 08:21:21;;;;;;;10.73;8.10;;;10.10;99.90;;;;;;5030910;28;20264;-55
2021/10/25 08:23:51;;;;;;;10.03;7.83;;;10.20;99.90;;;;;;5031021;28;20206;-56
2021/10/25 08:26:18;;;;;;;8.73;7.83;;;10.30;99.90;;;;;;5030728;28;20879;-58
2021/10/25 08:28:44;;;;;;;10.60;8.13;;;10.40;99.90;;;;;;5030684;28;20210;-56
2021/10/25 08:31:13;;;;;;;10.20;7.50;;;10.40;99.90;;;;;;5030625;28;20643;-56
2021/10/25 08:39:45;;;;;;;11.17;7.83;;;10.60;99.90;;;;;;5035147;28;20571;-56
2021/10/25 08:42:11;;;;;;;10.00;7.23;;;10.80;99.90;;;;;;5012450;28;20718;-56
2021/10/25 08:44:40;;;;;;;8.57;7.33;;;11.00;99.90;;;;;;5029034;28;20323;-56
2021/10/25 08:47:08;;;;;;;9.93;7.90;;;11.20;99.90;;;;;;5034554;28;20268;-55
2021/10/25 08:49:34;;;;;;;13.20;7.43;;;11.20;99.90;;;;;;5034455;28;20242;-55
2021/10/25 08:52:01;;;;;;;8.20;7.40;;;11.30;99.90;;;;;;5034635;28;20612;-55
2021/10/25 08:54:31;;;;;;;10.03;6.97;;;11.20;99.90;;;;;;5034009;28;20584;-57
2021/10/25 08:56:59;;;;;;;9.07;7.23;;;11.10;99.90;;;;;;5034483;28;20559;-54
2021/10/25 08:59:28;;;;;;;7.93;7.10;;;11.10;99.90;;;;;;5034184;28;20210;-54
2021/10/25 09:02:04;;;;;;;8.50;6.93;;;11.00;99.90;;;;;;5034189;28;20714;-56
2021/10/25 09:04:31;;;;;;;9.00;7.80;;;10.90;99.90;;;;;;5034388;28;20202;-55
2021/10/25 09:06:58;;;;;;;10.20;7.37;;;11.00;99.90;;;;;;5034319;28;20550;-54
2021/10/25 09:09:25;;;;;;;9.00;7.27;;;11.00;99.90;;;;;;5034643;28;20671;-58
2021/10/25 09:11:58;;;;;;;10.37;7.40;;;11.30;99.90;;;;;;5034174;28;20802;-55
2021/10/25 09:14:25;;;;;;;9.67;7.57;;;11.50;99.90;;;;;;5033707;28;20572;-55
2021/10/25 09:16:57;;;;;;;10.37;6.80;;;11.80;99.90;;;;;;5034124;28;20206;-55
2021/10/25 09:19:23;;;;;;;8.50;6.97;;;11.90;99.90;;;;;;5033929;28;20649;-54
2021/10/25 09:21:52;;;;;;;8.47;6.70;;;11.90;99.90;;;;;;5034125;28;20230;-55
2021/10/25 09:24:19;;;;;;;7.30;6.20;;;11.90;99.90;;;;;;5033863;28;20234;-57
2021/10/25 09:26:54;;;;;;;7.40;6.50;;;12.00;99.90;;;;;;5034068;28;20260;-57
2021/10/25 09:29:27;;;;;;;7.43;6.60;;;12.00;99.90;;;;;;5035196;28;20216;-55
2021/10/25 09:31:55;;;;;;;8.17;6.47;;;12.10;99.90;;;;;;5034671;28;20237;-55
2021/10/25 09:34:34;;;;;;;7.47;6.17;;;12.10;99.90;;;;;;5034236;28;20228;-57
2021/10/25 09:37:07;;;;;;;7.77;6.17;;;12.10;99.90;;;;;;5038176;28;20678;-56
2021/10/25 09:42:26;;;;;;;6.23;5.23;;;12.20;99.90;;;;;;5033071;28;20657;-56
2021/10/25 09:50:42;;;;;;;10.07;6.43;;;12.70;99.90;;;;;;5033640;28;20217;-57
2021/10/25 09:53:09;;;;;;;8.80;6.40;;;12.90;99.90;;;;;;5033972;28;20234;-56
2021/10/25 09:55:43;;;;;;;10.33;7.53;;;13.00;99.90;;;;;;5033257;28;20210;-56
2021/10/25 09:58:16;;;;;;;9.13;7.60;;;13.00;99.90;;;;;;5033265;28;20217;-57
2021/10/25 10:00:45;;;;;;;10.77;5.97;;;13.00;99.90;;;;;;5033392;28;20244;-58
2021/10/25 10:03:12;;;;;;;10.00;5.33;;;13.10;99.90;;;;;;5033451;28;20226;-57
2021/10/25 10:05:40;;;;;;;5.50;4.93;;;13.00;99.90;;;;;;5033244;28;20616;-55
2021/10/25 10:08:09;;;;;;;8.60;6.03;;;13.00;99.90;;;;;;5033091;28;20210;-56
2021/10/25 10:10:36;;;;;;;7.73;5.10;;;12.90;99.90;;;;;;5033497;28;20217;-57
2021/10/25 10:13:04;;;;;;;6.37;4.57;;;12.80;99.90;;;;;;5033003;28;20722;-55
2021/10/25 10:15:34;;;;;;;8.40;4.40;;;12.80;99.90;;;;;;5033117;28;20601;-56
2021/10/25 10:18:06;;;;;;;7.50;4.70;;;12.70;99.90;;;;;;5032861;28;20304;-57
2021/10/25 10:20:36;;;;;;;5.37;4.70;;;12.90;99.90;;;;;;5032946;28;20206;-55
2021/10/25 10:23:06;;;;;;;8.37;5.27;;;13.00;99.90;;;;;;5032500;28;20226;-56
2021/10/25 10:25:36;;;;;;;6.60;5.70;;;13.10;99.90;;;;;;5032533;28;20230;-56
2021/10/25 10:28:08;;;;;;;5.80;5.10;;;13.30;99.90;;;;;;5032723;28;20210;-57
2021/10/25 10:30:49;;;;;;;5.87;5.27;;;13.30;99.90;;;;;;5032792;28;20218;-56
2021/10/25 10:33:18;;;;;;;5.23;4.57;;;13.40;99.90;;;;;;5032355;28;20319;-56
2021/10/25 10:35:46;;;;;;;5.07;4.03;;;13.50;99.90;;;;;;5032009;28;20670;-56
2021/10/25 10:38:14;;;;;;;6.23;4.27;;;13.50;99.90;;;;;;5032699;28;20206;-56
2021/10/25 10:40:43;;;;;;;6.23;4.47;;;13.60;99.90;;;;;;5032884;28;20210;-55
2021/10/25 10:43:22;;;;;;;5.97;4.00;;;13.70;99.90;;;;;;5032453;28;20225;-56
2021/10/25 10:45:58;;;;;;;7.83;4.47;;;13.80;99.90;;;;;;5032299;28;20241;-55
2021/10/25 10:48:29;;;;;;;5.43;4.00;;;14.00;99.90;;;;;;5032098;28;20206;-55
2021/10/25 10:51:02;;;;;;;4.73;3.47;;;14.20;99.90;;;;;;5032624;28;20246;-57
2021/10/25 10:53:32;;;;;;;5.60;3.67;;;14.40;99.90;;;;;;5031959;28;20678;-56
2021/10/25 10:56:03;;;;;;;6.77;4.20;;;14.40;99.90;;;;;;5032408;28;20214;-55
2021/10/25 10:58:44;;;;;;;6.37;3.67;;;14.40;99.90;;;;;;5030742;28;20646;-55
2021/10/25 11:01:11;;;;;;;5.63;4.30;;;14.40;99.90;;;;;;5032266;28;20206;-55
2021/10/25 11:03:39;;;;;;;5.00;3.50;;;14.50;99.90;;;;;;5031904;28;20217;-56
2021/10/25 11:06:10;;;;;;;4.30;3.53;;;14.60;99.90;;;;;;5032062;28;20627;-56
2021/10/25 11:08:39;;;;;;;5.73;3.83;;;14.70;99.90;;;;;;5031950;28;20210;-57
2021/10/25 11:11:08;;;;;;;10.20;6.27;;;15.00;99.90;;;;;;5031808;28;20202;-55
2021/10/25 11:13:40;;;;;;;6.00;4.50;;;15.10;99.90;;;;;;5032265;28;20202;-56
2021/10/25 11:16:10;;;;;;;6.37;4.33;;;15.20;99.90;;;;;;5032238;28;20581;-57
2021/10/25 11:18:40;;;;;;;5.57;4.10;;;15.20;99.90;;;;;;5032236;28;20322;-56
2021/10/25 11:21:13;;;;;;;3.77;3.37;;;15.20;99.90;;;;;;5032024;28;20210;-57
2021/10/25 11:23:43;;;;;;;5.70;3.70;;;15.30;99.90;;;;;;5031722;28;20305;-56
2021/10/25 11:26:16;;;;;;;4.20;3.27;;;15.50;99.90;;;;;;5031996;28;20209;-56
2021/10/25 11:29:05;;;;;;;6.90;3.20;;;15.80;99.90;;;;;;5031700;28;20632;-56
2021/10/25 11:31:34;;;;;;;3.57;2.63;;;16.00;99.90;;;;;;5031493;28;20234;-56
2021/10/25 11:34:07;;;;;;;3.37;2.30;;;16.40;99.90;;;;;;5031160;28;20651;-56
2021/10/25 11:36:35;;;;;;;3.57;2.00;;;16.70;99.90;;;;;;5031670;28;20210;-57
2021/10/25 11:39:08;;;;;;;5.10;2.40;;;16.90;99.90;;;;;;5031253;28;20627;-57
2021/10/25 11:41:47;;;;;;;4.40;2.97;;;17.10;99.90;;;;;;5031357;28;20233;-56
2021/10/25 11:44:14;;;;;;;4.10;3.10;;;17.20;99.90;;;;;;5031429;28;20213;-57
2021/10/25 11:46:41;;;;;;;3.50;2.70;;;17.40;99.90;;;;;;5031227;28;20677;-58
2021/10/25 11:49:10;;;;;;;3.60;2.87;;;17.40;99.90;;;;;;5031603;28;20214;-57
2021/10/25 11:51:47;;;;;;;4.63;3.00;;;17.40;99.90;;;;;;5031313;28;20226;-56
2021/10/25 11:54:14;;;;;;;4.07;2.40;;;17.50;99.90;;;;;;5031074;28;20500;-56
2021/10/25 11:56:48;;;;;;;2.43;2.20;;;17.50;99.90;;;;;;5031216;28;20228;-56
2021/10/25 11:59:15;;;;;;;2.80;2.00;;;17.70;99.10;;;;;;5030903;28;20212;-57
2021/10/25 12:01:43;;;;;;;3.03;2.47;;;17.80;98.20;;;;;;5030847;28;20230;-57
2021/10/25 12:04:11;;;;;;;5.10;2.10;;;17.80;99.10;;;;;;5030960;28;20241;-56
2021/10/25 12:06:37;;;;;;;2.97;2.17;;;17.90;98.60;;;;;;5030964;28;20205;-56
2021/10/25 12:09:07;;;;;;;2.83;2.30;;;18.00;98.10;;;;;;5030456;28;20217;-56
2021/10/25 12:11:40;;;;;;;2.20;1.90;;;18.00;98.30;;;;;;5030579;28;20230;-58
2021/10/25 12:14:07;;;;;;;4.77;2.07;;;18.10;98.00;;;;;;5030811;28;20628;-56
2021/10/25 12:16:34;;;;;;;2.87;2.10;;;18.30;97.60;;;;;;5030655;28;20713;-57
2021/10/25 12:19:02;;;;;;;3.40;2.70;;;18.40;97.10;;;;;;5030650;28;20717;-57
2021/10/25 12:21:35;;;;;;;3.65;2.25;;;18.50;97.00;;;;;;5029692;28;20911;-63
2021/10/25 12:24:04;;;;;;;3.80;2.30;;;18.50;96.90;;;;;;5010535;28;20207;-57
2021/10/25 12:26:31;;;;;;;3.70;1.92;;;18.50;96.80;;;;;;5010953;28;20705;-56
2021/10/25 12:28:58;;;;;;;3.05;1.80;;;18.60;95.90;;;;;;5010809;28;20737;-59
2021/10/25 12:31:27;;;;;;;3.47;2.10;;;18.70;95.10;;;;;;5011276;28;20234;-59
2021/10/25 12:34:02;;;;;;;3.92;1.90;;;18.80;95.10;;;;;;5010541;28;20253;-59
2021/10/25 12:36:36;;;;;;;2.88;2.10;;;18.90;95.20;;;;;;5010928;28;20213;-59
2021/10/25 12:39:08;;;;;;;5.43;1.90;;;19.00;94.70;;;;;;5011081;28;20211;-60
2021/10/25 12:41:45;;;;;;;3.15;1.92;;;19.20;94.60;;;;;;5011068;28;20231;-61
2021/10/25 12:44:12;;;;;;;2.13;1.73;;;19.20;93.60;;;;;;5010960;28;20206;-61
2021/10/25 12:46:38;;;;;;;2.25;1.95;;;19.20;93.20;;;;;;5010714;28;20207;-58
2021/10/25 12:49:05;;;;;;;3.08;1.80;;;19.10;93.00;;;;;;5010519;28;20210;-60
2021/10/25 12:51:39;;;;;;;5.65;1.75;;;19.00;93.10;;;;;;5011512;28;20281;-61
2021/10/25 12:54:09;;;;;;;2.97;1.75;;;19.10;92.50;;;;;;5010855;28;20257;-60
2021/10/25 12:56:37;;;;;;;2.15;1.60;;;19.00;92.40;;;;;;5010975;28;20207;-62
2021/10/25 12:59:05;;;;;;;3.13;1.88;;;19.00;92.50;;;;;;5011054;28;20292;-59
2021/10/25 13:01:33;;;;;;;2.90;1.60;;;18.80;92.70;;;;;;5010906;28;20226;-59
2021/10/25 13:04:01;;;;;;;2.28;1.33;;;18.70;92.50;;;;;;5011541;28;20218;-59
2021/10/25 13:06:29;;;;;;;2.83;1.80;;;18.70;92.00;;;;;;5011032;28;20210;-58
2021/10/25 13:09:03;;;;;;;2.50;1.90;;;18.60;92.20;;;;;;5010905;28;20667;-59
2021/10/25 13:11:30;;;;;;;2.85;1.80;;;18.70;92.60;;;;;;5011222;28;20230;-58
2021/10/25 13:13:58;;;;;;;6.03;2.22;;;18.70;92.70;;;;;;5010864;28;20692;-59
2021/10/25 13:16:33;;;;;;;3.42;1.95;;;18.70;93.00;;;;;;5011221;28;20231;-58
2021/10/25 13:19:00;;;;;;;2.42;2.08;;;18.60;92.60;;;;;;5010960;28;20221;-58
2021/10/25 13:21:27;;;;;;;2.30;1.80;;;18.80;92.40;;;;;;5012524;28;20733;-59
2021/10/25 13:23:53;;;;;;;4.03;2.50;;;18.90;91.90;;;;;;5014392;28;20211;-58
2021/10/25 13:26:22;;;;;;;4.95;3.08;;;18.90;91.90;;;;;;5014241;28;20213;-59
2021/10/25 13:28:49;;;;;;;6.18;4.07;;;19.10;91.80;;;;;;5014425;28;20486;-59
2021/10/25 13:31:15;;;;;;;4.85;2.50;;;19.30;92.10;;;;;;5014167;28;20730;-58
2021/10/25 13:33:42;;;;;;;4.55;1.90;;;19.60;91.50;;;;;;5013783;28;20226;-58
2021/10/25 13:36:09;;;;;;;2.83;1.73;;;19.70;90.40;;;;;;5013804;28;20275;-58
2021/10/25 13:38:36;;;;;;;3.38;1.55;;;19.90;90.30;;;;;;5013872;28;20210;-58
2021/10/25 13:41:02;;;;;;;1.45;1.33;;;20.00;89.10;;;;;;5013785;28;20211;-57
2021/10/25 13:43:31;;;;;;;5.70;1.70;;;20.00;89.00;;;;;;5014131;28;20217;-58
2021/10/25 13:45:57;;;;;;;4.95;2.95;;;19.90;89.10;;;;;;5013371;28;20202;-58
2021/10/25 13:48:24;;;;;;;3.38;1.80;;;19.80;88.40;;;;;;5013707;28;20218;-58
2021/10/25 13:50:51;;;;;;;4.30;2.28;;;19.80;89.10;;;;;;5013785;28;20215;-58
2021/10/25 13:53:18;;;;;;;4.22;1.95;;;19.90;88.60;;;;;;5013785;28;20226;-58
2021/10/25 13:55:44;;;;;;;4.10;2.38;;;20.00;88.00;;;;;;5013263;28;20219;-59
2021/10/25 13:58:11;;;;;;;5.65;2.67;;;20.30;86.80;;;;;;5013598;28;20211;-59
2021/10/25 14:00:40;;;;;;;8.88;5.55;;;20.80;86.20;;;;;;5013689;28;20203;-57
2021/10/25 14:03:07;;;;;;;3.60;1.60;;;21.40;84.90;;;;;;5013626;28;20702;-59
2021/10/25 14:05:34;;;;;;;1.67;1.48;;;21.70;84.50;;;;;;5013602;28;20237;-59
2021/10/25 14:08:00;;;;;;;1.90;1.40;;;21.60;84.60;;;;;;5013511;28;20211;-58